createdAt,value
2022-11-16T00:03:52.794Z,19.33
2022-11-16T00:09:15.982Z,19.15
2022-11-16T00:19:21.095Z,18.80
2022-11-16T00:24:23.928Z,18.45
2022-11-16T00:29:27.258Z,18.67
2022-11-16T00:34:29.930Z,19.30
2022-11-16T00:39:32.763Z,18.52
2022-11-16T00:44:35.333Z,18.73
2022-11-16T00:49:38.745Z,18.55
2022-11-16T00:54:41.490Z,18.45
2022-11-16T00:59:44.139Z,18.75
2022-11-16T01:04:46.762Z,19.05
2022-11-16T01:09:49.448Z,18.05
2022-11-16T01:14:53.104Z,19.20
2022-11-16T01:19:55.908Z,22.55
2022-11-16T01:24:58.496Z,19.40
2022-11-16T01:30:01.220Z,17.95
2022-11-16T01:35:04.463Z,18.48
2022-11-16T01:40:10.321Z,18.40
2022-11-16T01:45:30.576Z,17.88
2022-11-16T01:50:35.778Z,17.83
2022-11-16T01:55:39.091Z,17.83
2022-11-16T02:01:10.890Z,18.77
2022-11-16T02:06:30.850Z,18.10
2022-11-16T02:12:11.499Z,18.92
2022-11-16T02:17:20.474Z,19.33
2022-11-16T02:22:34.284Z,19.15
2022-11-16T02:27:36.979Z,19.27
2022-11-16T02:32:50.082Z,20.83
2022-11-16T02:37:58.202Z,21.13
2022-11-16T02:43:07.028Z,20.80
2022-11-16T02:48:17.066Z,19.67
2022-11-16T02:53:23.971Z,20.58
2022-11-16T02:58:28.137Z,19.92
2022-11-16T03:03:43.475Z,20.13
2022-11-16T03:08:50.082Z,19.90
2022-11-16T03:13:55.684Z,20.38
2022-11-16T03:19:00.293Z,21.17
2022-11-16T03:24:04.269Z,20.00
2022-11-16T03:29:21.780Z,22.10
2022-11-16T03:34:29.228Z,22.25
2022-11-16T03:39:34.267Z,23.27
2022-11-16T03:44:38.967Z,21.98
2022-11-16T03:49:45.910Z,22.25
2022-11-16T03:54:50.562Z,24.02
2022-11-16T03:59:54.119Z,22.65
2022-11-16T04:05:15.222Z,25.17
2022-11-16T04:10:37.457Z,26.90
2022-11-16T04:15:58.777Z,25.02
2022-11-16T04:21:20.170Z,24.05
2022-11-16T04:26:42.997Z,23.70
2022-11-16T04:32:04.099Z,26.02
2022-11-16T04:37:25.583Z,25.02
2022-11-16T04:42:28.373Z,24.40
2022-11-16T04:47:31.127Z,24.60
2022-11-16T04:52:33.926Z,26.85
2022-11-16T04:57:37.100Z,28.80
2022-11-16T05:02:40.606Z,23.60
2022-11-16T05:07:43.667Z,28.65
2022-11-16T05:12:52.209Z,27.08
2022-11-16T05:17:55.881Z,25.80
2022-11-16T05:23:01.001Z,26.52
2022-11-16T05:28:07.425Z,24.55
2022-11-16T05:33:16.608Z,25.00
2022-11-16T05:38:21.686Z,28.63
2022-11-16T05:43:29.965Z,23.45
2022-11-16T05:48:52.023Z,24.73
2022-11-16T05:53:54.948Z,23.90
2022-11-16T05:58:59.361Z,25.05
2022-11-16T06:04:02.493Z,24.35
2022-11-16T06:09:07.226Z,23.10
2022-11-16T06:14:11.313Z,24.95
2022-11-16T06:19:14.873Z,24.55
2022-11-16T06:24:17.434Z,25.35
2022-11-16T06:29:20.579Z,24.90
2022-11-16T06:34:23.240Z,24.80
2022-11-16T06:39:25.928Z,24.75
2022-11-16T06:44:28.618Z,25.63
2022-11-16T06:49:36.057Z,23.63
2022-11-16T06:54:44.935Z,24.83
2022-11-16T06:59:48.301Z,24.77
2022-11-16T07:04:50.953Z,24.75
2022-11-16T07:09:54.395Z,24.10
2022-11-16T07:14:57.243Z,23.73
2022-11-16T07:20:01.431Z,24.58
2022-11-16T07:25:05.508Z,23.52
2022-11-16T07:30:08.388Z,24.38
2022-11-16T07:35:29.876Z,23.23
2022-11-16T07:40:32.562Z,22.98
2022-11-16T07:45:35.500Z,24.40
2022-11-16T07:50:42.916Z,23.35
2022-11-16T07:55:51.621Z,21.88
2022-11-16T08:00:54.213Z,22.60
2022-11-16T08:06:00.808Z,21.70
2022-11-16T08:11:05.038Z,20.55
2022-11-16T08:16:10.929Z,20.58
2022-11-16T08:21:15.511Z,21.23
2022-11-16T08:26:20.590Z,20.67
2022-11-16T08:31:29.118Z,20.02
2022-11-16T08:36:44.893Z,18.20
2022-11-16T08:41:50.602Z,17.40
2022-11-16T08:46:53.367Z,16.95
2022-11-16T08:52:07.513Z,15.45
2022-11-16T08:57:11.290Z,15.98
2022-11-16T09:02:16.932Z,16.13
2022-11-16T09:07:20.589Z,14.68
2022-11-16T09:12:23.700Z,14.77
2022-11-16T09:17:26.633Z,13.57
2022-11-16T09:22:29.303Z,19.63
2022-11-16T09:27:31.825Z,31.00
2022-11-16T09:32:34.564Z,22.45
2022-11-16T09:52:21.321Z,17.45
2022-11-16T09:57:27.425Z,16.27
2022-11-16T10:02:33.179Z,16.40
2022-11-16T10:07:41.796Z,17.88
2022-11-16T10:12:47.404Z,15.73
2022-11-16T10:17:59.470Z,16.90
2022-11-16T10:23:20.572Z,16.63
2022-11-16T10:28:29.672Z,17.73
2022-11-16T10:33:36.608Z,18.35
2022-11-16T10:38:39.710Z,18.73
2022-11-16T10:43:43.337Z,17.80
2022-11-16T10:48:48.760Z,18.95
2022-11-16T10:53:53.357Z,20.30
2022-11-16T10:59:00.294Z,19.27
2022-11-16T11:04:22.371Z,18.08
2022-11-16T11:09:24.946Z,19.27
2022-11-16T11:14:27.479Z,18.80
2022-11-16T11:19:30.018Z,19.17
2022-11-16T11:24:48.003Z,28.33
2022-11-16T11:29:53.285Z,19.08
2022-11-16T11:34:56.619Z,17.92
2022-11-16T11:40:18.786Z,18.02
2022-11-16T11:45:23.542Z,17.23
2022-11-16T11:50:32.409Z,18.63
2022-11-16T11:55:35.238Z,17.63
2022-11-16T12:01:19.548Z,17.63
2022-11-16T12:06:52.934Z,17.45
2022-11-16T12:12:01.870Z,17.00
2022-11-16T12:17:04.480Z,16.30
2022-11-16T12:22:09.963Z,15.93
2022-11-16T12:27:44.958Z,16.40
2022-11-16T12:32:47.666Z,16.23
2022-11-16T12:37:55.816Z,16.95
2022-11-16T12:43:04.527Z,16.42
2022-11-16T12:48:07.205Z,15.70
2022-11-16T12:53:15.684Z,14.93
2022-11-16T12:58:18.310Z,14.82
2022-11-16T13:03:28.794Z,14.05
2022-11-16T13:08:40.518Z,13.70
2022-11-16T13:13:49.583Z,13.98
2022-11-16T13:18:55.245Z,13.55
2022-11-16T13:24:04.034Z,13.32
2022-11-16T13:29:09.637Z,13.55
2022-11-16T13:34:21.980Z,15.18
2022-11-16T13:39:43.165Z,12.98
2022-11-16T13:44:51.438Z,13.35
2022-11-16T13:50:01.836Z,12.63
2022-11-16T13:55:13.516Z,12.98
2022-11-16T14:00:42.582Z,12.20
2022-11-16T14:05:49.057Z,13.13
2022-11-16T14:10:51.899Z,12.52
2022-11-16T14:16:13.677Z,13.10
2022-11-16T14:21:19.547Z,12.20
2022-11-16T14:26:22.204Z,12.45
2022-11-16T14:31:25.116Z,11.32
2022-11-16T14:36:35.438Z,11.82
2022-11-16T14:41:38.106Z,13.48
2022-11-16T14:46:42.012Z,11.05
2022-11-16T14:51:47.600Z,10.50
2022-11-16T14:56:57.039Z,10.35
2022-11-16T15:02:02.903Z,9.70
2022-11-16T15:07:05.902Z,9.70
2022-11-16T15:12:35.261Z,9.02
2022-11-16T15:17:51.859Z,17.30
2022-11-16T15:22:57.237Z,8.75
2022-11-16T15:28:01.624Z,9.07
2022-11-16T15:33:09.600Z,7.65
2022-11-16T15:38:15.617Z,8.75
2022-11-16T15:43:19.620Z,8.02
2022-11-16T15:48:23.797Z,8.65
2022-11-16T15:53:40.211Z,8.82
2022-11-16T15:58:43.077Z,8.48
2022-11-16T16:04:05.970Z,9.30
2022-11-16T16:09:11.787Z,9.57
2022-11-16T16:14:28.500Z,10.88
2022-11-16T16:19:37.029Z,9.65
2022-11-16T16:24:45.510Z,9.07
2022-11-16T16:29:49.864Z,8.85
2022-11-16T16:34:53.121Z,9.25
2022-11-16T16:39:55.662Z,9.05
2022-11-16T16:44:59.505Z,10.25
2022-11-16T16:50:02.153Z,10.88
2022-11-16T16:55:05.121Z,10.40
2022-11-16T17:00:08.105Z,9.88
2022-11-16T17:05:10.807Z,9.85
2022-11-16T17:10:13.491Z,8.90
2022-11-16T17:15:19.357Z,8.90
2022-11-16T17:20:22.280Z,8.57
2022-11-16T17:25:24.998Z,8.02
2022-11-16T17:30:28.950Z,7.15
2022-11-16T17:35:32.433Z,7.90
2022-11-16T17:40:35.135Z,7.47
2022-11-16T17:45:37.836Z,7.95
2022-11-16T17:50:47.010Z,8.10
2022-11-16T17:55:49.692Z,7.72
2022-11-16T18:00:52.499Z,7.72
2022-11-16T18:06:02.067Z,7.45
2022-11-16T18:11:05.532Z,6.93
2022-11-16T18:16:08.278Z,7.07
2022-11-16T18:21:15.860Z,6.15
2022-11-16T18:26:23.637Z,6.47
2022-11-16T18:31:26.498Z,6.47
2022-11-16T18:36:29.218Z,5.85
2022-11-16T18:41:32.020Z,6.40
2022-11-16T18:46:34.812Z,6.18
2022-11-16T18:51:37.453Z,6.38
2022-11-16T18:56:40.149Z,7.00
2022-11-16T19:01:42.895Z,5.85
2022-11-16T19:06:45.555Z,6.40
2022-11-16T19:11:48.454Z,15.02
2022-11-16T19:16:56.692Z,6.20
2022-11-16T19:21:59.795Z,5.93
2022-11-16T19:27:02.533Z,6.30
2022-11-16T19:32:05.336Z,6.03
2022-11-16T19:37:08.337Z,5.82
2022-11-16T19:42:11.021Z,6.40
2022-11-16T19:47:13.768Z,6.65
2022-11-16T19:52:16.697Z,5.97
2022-11-16T19:57:20.903Z,6.07
2022-11-16T20:02:23.592Z,6.65
2022-11-16T20:07:26.312Z,6.18
2022-11-16T20:12:29.396Z,6.53
2022-11-16T20:17:32.041Z,6.63
2022-11-16T20:22:34.748Z,6.55
2022-11-16T20:27:37.428Z,6.95
2022-11-16T20:32:40.315Z,7.22
2022-11-16T20:37:43.703Z,7.43
2022-11-16T20:42:47.057Z,7.03
2022-11-16T20:47:49.674Z,7.18
2022-11-16T20:52:52.963Z,7.72
2022-11-16T20:57:55.735Z,7.05
2022-11-16T21:02:58.423Z,7.47
2022-11-16T21:08:01.096Z,11.90
2022-11-16T21:13:26.355Z,8.10
2022-11-16T21:18:30.876Z,7.15
2022-11-16T21:23:34.694Z,7.00
2022-11-16T21:28:38.080Z,7.28
2022-11-16T21:33:40.922Z,7.05
2022-11-16T21:38:43.788Z,8.10
2022-11-16T21:43:46.378Z,7.20
2022-11-16T21:48:51.337Z,6.90
2022-11-16T21:53:54.560Z,7.63
2022-11-16T21:58:57.271Z,7.05
2022-11-16T22:04:18.814Z,7.22
2022-11-16T22:09:21.841Z,7.10
2022-11-16T22:14:24.571Z,7.18
2022-11-16T22:19:27.233Z,7.38
2022-11-16T22:24:29.951Z,7.25
2022-11-16T22:29:32.796Z,7.50
2022-11-16T22:34:35.869Z,7.80
2022-11-16T22:39:41.335Z,7.93
2022-11-16T22:44:44.400Z,8.43
2022-11-16T22:49:47.125Z,11.00
2022-11-16T22:54:49.966Z,8.48
2022-11-16T22:59:53.649Z,7.85
2022-11-16T23:04:56.404Z,7.82
2022-11-16T23:09:59.025Z,8.48
2022-11-16T23:15:20.131Z,7.90
2022-11-16T23:20:42.001Z,8.68
2022-11-16T23:26:03.575Z,9.77
2022-11-16T23:31:06.279Z,7.70
2022-11-16T23:36:09.196Z,7.80
2022-11-16T23:41:30.596Z,7.88
2022-11-16T23:46:33.316Z,7.65
2022-11-16T23:51:36.255Z,8.00
2022-11-16T23:56:38.818Z,7.78
